createdAt,value
2023-03-06T00:01:08.361Z,3.78
2023-03-06T00:03:36.606Z,3.75
2023-03-06T00:06:04.858Z,3.75
2023-03-06T00:08:32.927Z,3.75
2023-03-06T00:11:01.364Z,3.73
2023-03-06T00:13:33.651Z,3.69
2023-03-06T00:16:02.931Z,3.66
2023-03-06T00:18:33.436Z,3.65
2023-03-06T00:21:01.454Z,3.62
2023-03-06T00:23:29.775Z,3.59
2023-03-06T00:25:58.212Z,3.58
2023-03-06T00:28:26.629Z,3.56
2023-03-06T00:30:54.621Z,3.55
2023-03-06T00:33:22.402Z,3.55
2023-03-06T00:35:50.418Z,3.54
2023-03-06T00:38:18.488Z,3.53
2023-03-06T00:40:46.317Z,3.53
2023-03-06T00:43:14.301Z,3.53
2023-03-06T00:45:43.132Z,3.50
2023-03-06T00:48:10.956Z,3.48
2023-03-06T00:50:38.986Z,3.48
2023-03-06T00:53:07.167Z,3.47
2023-03-06T00:55:36.005Z,3.45
2023-03-06T00:58:08.067Z,3.44
2023-03-06T01:00:36.462Z,3.43
2023-03-06T01:03:04.846Z,3.42
2023-03-06T01:05:35.673Z,3.40
2023-03-06T01:08:05.834Z,3.38
2023-03-06T01:10:38.312Z,3.37
2023-03-06T01:13:06.542Z,3.35
2023-03-06T01:15:34.617Z,3.32
2023-03-06T01:18:03.857Z,3.31
2023-03-06T01:20:32.347Z,3.30
2023-03-06T01:23:01.108Z,3.32
2023-03-06T01:25:29.984Z,3.34
2023-03-06T01:28:03.180Z,3.37
2023-03-06T01:30:33.537Z,3.39
2023-03-06T01:33:04.928Z,3.39
2023-03-06T01:35:35.318Z,3.40
2023-03-06T01:38:05.128Z,3.41
2023-03-06T01:40:36.898Z,3.44
2023-03-06T01:43:32.670Z,3.48
2023-03-06T01:46:22.544Z,3.54
2023-03-06T01:49:06.015Z,3.58
2023-03-06T01:51:58.997Z,3.61
2023-03-06T01:54:42.332Z,3.63
2023-03-06T01:57:38.125Z,3.65
2023-03-06T02:00:45.347Z,3.71
2023-03-06T02:03:24.664Z,3.77
2023-03-06T02:05:53.973Z,3.84
2023-03-06T02:08:23.743Z,3.88
2023-03-06T02:11:29.603Z,3.94
2023-03-06T02:13:58.084Z,4.07
2023-03-06T02:16:30.337Z,4.12
2023-03-06T02:19:01.404Z,4.12
2023-03-06T02:21:36.834Z,4.10
2023-03-06T02:24:36.429Z,4.06
2023-03-06T02:27:06.873Z,4.04
2023-03-06T02:29:35.055Z,4.02
2023-03-06T02:32:05.347Z,4.00
2023-03-06T02:34:39.496Z,3.98
2023-03-06T02:37:10.394Z,3.92
2023-03-06T02:39:49.292Z,3.88
2023-03-06T02:42:23.775Z,3.83
2023-03-06T02:44:54.679Z,3.80
2023-03-06T02:47:22.855Z,3.79
2023-03-06T02:49:50.872Z,3.78
2023-03-06T02:52:19.353Z,3.79
2023-03-06T02:54:49.051Z,3.75
2023-03-06T02:57:17.939Z,3.73
2023-03-06T02:59:48.570Z,3.69
2023-03-06T03:02:17.038Z,3.65
2023-03-06T03:04:45.705Z,3.62
2023-03-06T03:07:14.581Z,3.60
2023-03-06T03:09:43.487Z,3.61
2023-03-06T03:12:12.085Z,3.59
2023-03-06T03:14:40.235Z,3.58
2023-03-06T03:17:09.171Z,3.54
2023-03-06T03:19:37.148Z,3.49
2023-03-06T03:22:05.841Z,3.43
2023-03-06T03:24:33.958Z,3.39
2023-03-06T03:27:02.493Z,3.36
2023-03-06T03:29:30.479Z,3.33
2023-03-06T03:31:59.603Z,3.29
2023-03-06T03:34:29.385Z,3.25
2023-03-06T03:37:00.186Z,3.21
2023-03-06T03:39:28.229Z,3.14
2023-03-06T03:41:56.428Z,3.09
2023-03-06T03:44:25.411Z,3.07
2023-03-06T03:46:53.685Z,3.04
2023-03-06T03:49:22.930Z,3.01
2023-03-06T03:51:52.134Z,2.97
2023-03-06T03:54:20.938Z,2.92
2023-03-06T03:56:49.756Z,2.89
2023-03-06T03:59:23.818Z,2.86
2023-03-06T04:02:06.512Z,2.82
2023-03-06T04:04:38.881Z,2.77
2023-03-06T04:07:07.634Z,2.75
2023-03-06T04:09:36.073Z,2.71
2023-03-06T04:12:05.598Z,2.69
2023-03-06T04:14:35.200Z,2.67
2023-03-06T04:17:04.460Z,2.66
2023-03-06T04:19:32.759Z,2.65
2023-03-06T04:22:02.117Z,2.63
2023-03-06T04:24:31.857Z,2.61
2023-03-06T04:27:00.174Z,2.60
2023-03-06T04:29:29.829Z,2.58
2023-03-06T04:31:58.225Z,2.55
2023-03-06T04:34:26.386Z,2.52
2023-03-06T04:36:54.633Z,2.50
2023-03-06T04:39:22.474Z,2.49
2023-03-06T04:41:50.854Z,2.47
2023-03-06T04:44:18.879Z,2.45
2023-03-06T04:46:49.579Z,2.43
2023-03-06T04:49:17.850Z,2.42
2023-03-06T04:51:45.964Z,2.40
2023-03-06T04:54:14.645Z,2.37
2023-03-06T04:56:42.577Z,2.33
2023-03-06T04:59:11.111Z,2.29
2023-03-06T05:01:39.736Z,2.26
2023-03-06T05:04:07.968Z,2.26
2023-03-06T05:06:37.200Z,2.25
2023-03-06T05:09:05.446Z,2.25
2023-03-06T05:11:34.034Z,2.26
2023-03-06T05:14:03.255Z,2.28
2023-03-06T05:16:31.306Z,2.30
2023-03-06T05:18:59.460Z,2.33
2023-03-06T05:21:27.235Z,2.36
2023-03-06T05:23:55.960Z,2.38
2023-03-06T05:26:26.819Z,2.44
2023-03-06T05:28:54.860Z,2.50
2023-03-06T05:31:23.162Z,2.57
2023-03-06T05:33:51.478Z,2.66
2023-03-06T05:36:19.558Z,2.76
2023-03-06T05:38:47.531Z,2.85
2023-03-06T05:41:18.203Z,2.94
2023-03-06T05:43:47.626Z,3.03
2023-03-06T05:46:15.887Z,3.14
2023-03-06T05:48:46.811Z,3.26
2023-03-06T05:51:15.237Z,3.39
2023-03-06T05:53:44.530Z,3.53
2023-03-06T05:56:14.807Z,3.66
2023-03-06T05:58:45.774Z,3.81
2023-03-06T06:01:18.409Z,3.97
2023-03-06T06:03:48.627Z,4.11
2023-03-06T06:06:17.523Z,4.20
2023-03-06T06:08:45.840Z,4.29
2023-03-06T06:11:15.407Z,4.34
2023-03-06T06:13:48.104Z,4.43
2023-03-06T06:16:16.617Z,4.52
2023-03-06T06:19:17.911Z,4.61
2023-03-06T06:21:48.605Z,4.79
2023-03-06T06:24:20.051Z,4.90
2023-03-06T06:26:59.011Z,5.03
2023-03-06T06:29:29.636Z,5.21
2023-03-06T06:32:00.617Z,5.43
2023-03-06T06:34:39.091Z,5.58
2023-03-06T06:37:11.754Z,5.72
2023-03-06T06:40:13.478Z,5.83
2023-03-06T06:42:43.043Z,5.99
2023-03-06T06:45:12.404Z,6.01
2023-03-06T06:48:00.666Z,5.95
2023-03-06T06:50:30.197Z,5.99
2023-03-06T06:52:59.924Z,6.05
2023-03-06T06:55:28.390Z,6.15
2023-03-06T06:57:56.836Z,6.21
2023-03-06T07:00:27.204Z,6.26
2023-03-06T07:02:55.360Z,6.34
2023-03-06T07:05:26.596Z,6.52
2023-03-06T07:07:55.020Z,6.76
2023-03-06T07:10:24.851Z,6.68
2023-03-06T07:12:54.117Z,6.73
2023-03-06T07:15:30.356Z,6.91
2023-03-06T07:18:01.300Z,7.04
2023-03-06T07:20:31.340Z,7.11
2023-03-06T07:22:59.709Z,7.30
2023-03-06T07:28:21.570Z,6.98
2023-03-06T07:30:54.255Z,7.04
2023-03-06T07:33:22.726Z,7.11
2023-03-06T07:35:50.926Z,7.50
2023-03-06T07:38:20.648Z,7.49
2023-03-06T07:40:53.116Z,7.71
2023-03-06T07:43:21.212Z,8.00
2023-03-06T07:46:00.373Z,8.24
2023-03-06T07:48:28.594Z,7.96
2023-03-06T07:51:09.576Z,7.84
2023-03-06T07:53:37.952Z,7.99
2023-03-06T07:56:11.131Z,7.94
2023-03-06T07:58:44.898Z,7.99
2023-03-06T08:01:19.143Z,8.07
2023-03-06T08:03:49.419Z,8.32
2023-03-06T08:06:25.955Z,8.45
2023-03-06T08:08:55.439Z,8.52
2023-03-06T08:11:29.887Z,8.36
2023-03-06T08:13:59.575Z,8.35
2023-03-06T08:16:30.420Z,8.28
2023-03-06T08:19:02.621Z,8.24
2023-03-06T08:21:32.066Z,8.03
2023-03-06T08:24:04.763Z,7.86
2023-03-06T08:26:34.612Z,8.10
2023-03-06T08:29:13.063Z,8.23
2023-03-06T08:32:00.036Z,8.07
2023-03-06T08:34:43.328Z,8.40
2023-03-06T08:37:26.843Z,8.88
2023-03-06T08:40:06.566Z,8.77
2023-03-06T08:42:35.871Z,8.73
2023-03-06T08:45:06.735Z,8.30
2023-03-06T08:47:41.464Z,7.97
2023-03-06T08:50:11.601Z,8.02
2023-03-06T08:52:41.188Z,8.46
2023-03-06T08:55:09.754Z,9.24
2023-03-06T08:57:46.656Z,9.76
2023-03-06T09:00:15.708Z,9.77
2023-03-06T09:02:46.451Z,9.77
2023-03-06T09:05:16.714Z,9.81
2023-03-06T09:07:45.824Z,10.22
2023-03-06T09:10:17.004Z,10.39
2023-03-06T09:12:54.402Z,10.82
2023-03-06T09:15:28.729Z,11.32
2023-03-06T09:17:58.814Z,11.57
2023-03-06T09:20:28.054Z,11.49
2023-03-06T09:22:58.805Z,11.25
2023-03-06T09:25:27.094Z,11.22
2023-03-06T09:28:10.078Z,11.90
2023-03-06T09:30:40.756Z,12.57
2023-03-06T09:33:10.531Z,12.72
2023-03-06T09:35:55.068Z,13.04
2023-03-06T09:38:27.620Z,12.91
2023-03-06T09:41:41.155Z,12.80
2023-03-06T09:44:23.037Z,12.86
2023-03-06T09:46:54.469Z,13.10
2023-03-06T09:50:00.923Z,13.18
2023-03-06T09:53:04.960Z,13.20
2023-03-06T09:55:37.737Z,13.07
2023-03-06T09:58:27.236Z,13.48
2023-03-06T10:01:38.081Z,13.77
2023-03-06T10:04:49.863Z,13.44
2023-03-06T10:07:33.141Z,13.91
2023-03-06T10:10:38.784Z,13.87
2023-03-06T10:13:42.760Z,14.55
2023-03-06T10:16:31.540Z,15.20
2023-03-06T10:19:04.800Z,15.41
2023-03-06T10:22:03.756Z,15.45
2023-03-06T10:24:53.105Z,15.40
2023-03-06T10:27:58.161Z,16.06
2023-03-06T10:30:42.267Z,16.38
2023-03-06T10:33:42.127Z,16.40
2023-03-06T10:36:17.577Z,16.46
2023-03-06T10:38:48.078Z,16.90
2023-03-06T10:41:32.075Z,17.46
2023-03-06T10:44:01.140Z,17.73
2023-03-06T10:46:44.546Z,17.71
2023-03-06T10:49:37.529Z,17.58
2023-03-06T10:52:21.292Z,17.83
2023-03-06T10:54:51.662Z,18.09
2023-03-06T10:57:32.532Z,18.56
2023-03-06T11:00:05.953Z,18.82
2023-03-06T11:02:40.500Z,18.68
2023-03-06T11:05:20.632Z,18.10
2023-03-06T11:08:00.923Z,17.58
2023-03-06T11:10:37.106Z,17.50
2023-03-06T11:13:22.381Z,17.53
2023-03-06T11:16:05.646Z,17.68
2023-03-06T11:18:43.552Z,17.84
2023-03-06T11:21:36.756Z,17.82
2023-03-06T11:24:19.140Z,17.87
2023-03-06T11:26:59.180Z,17.78
2023-03-06T11:29:45.138Z,17.66
2023-03-06T11:32:23.454Z,17.42
2023-03-06T11:35:06.498Z,17.21
2023-03-06T11:37:58.661Z,16.78
2023-03-06T11:40:49.317Z,16.97
2023-03-06T11:43:36.353Z,17.10
2023-03-06T11:46:17.541Z,17.32
2023-03-06T11:49:24.206Z,16.38
2023-03-06T11:52:01.329Z,16.38
2023-03-06T11:54:44.207Z,16.97
2023-03-06T11:57:42.440Z,16.67
2023-03-06T12:00:40.575Z,17.06
2023-03-06T12:03:31.662Z,17.14
2023-03-06T12:06:34.780Z,16.74
2023-03-06T12:09:33.112Z,16.56
2023-03-06T12:12:24.364Z,16.35
2023-03-06T12:15:52.612Z,16.06
2023-03-06T12:18:55.989Z,15.42
2023-03-06T12:22:08.985Z,14.24
2023-03-06T12:24:53.547Z,14.82
2023-03-06T12:27:50.252Z,14.54
2023-03-06T12:30:41.034Z,14.60
2023-03-06T12:33:31.610Z,14.75
2023-03-06T12:36:38.822Z,14.95
2023-03-06T12:39:56.356Z,15.10
2023-03-06T12:43:06.307Z,15.58
2023-03-06T12:45:38.789Z,16.21
2023-03-06T12:48:37.047Z,16.85
2023-03-06T12:51:12.940Z,17.64
2023-03-06T12:53:47.365Z,18.07
2023-03-06T12:56:17.860Z,18.29
2023-03-06T12:59:01.824Z,18.76
2023-03-06T13:01:49.313Z,18.97
2023-03-06T13:04:56.607Z,19.28
2023-03-06T13:07:44.277Z,19.18
2023-03-06T13:10:35.883Z,19.40
2023-03-06T13:13:41.158Z,19.66
2023-03-06T13:16:15.862Z,19.86
2023-03-06T13:18:44.313Z,19.77
2023-03-06T13:21:56.485Z,19.97
2023-03-06T13:24:39.770Z,20.02
2023-03-06T13:27:45.455Z,19.50
2023-03-06T13:30:38.516Z,19.40
2023-03-06T13:33:32.396Z,19.42
2023-03-06T13:36:39.811Z,19.22
2023-03-06T13:39:13.014Z,18.93
2023-03-06T13:41:59.717Z,18.01
2023-03-06T13:44:30.584Z,17.44
2023-03-06T13:47:19.226Z,17.81
2023-03-06T13:49:48.345Z,17.67
2023-03-06T13:52:53.692Z,17.16
2023-03-06T13:56:07.830Z,16.64
2023-03-06T13:59:01.301Z,16.77
2023-03-06T14:01:39.428Z,17.14
2023-03-06T14:04:41.735Z,17.36
2023-03-06T14:07:24.123Z,17.10
2023-03-06T14:10:13.206Z,16.18
2023-03-06T14:12:53.927Z,15.02
2023-03-06T14:15:50.011Z,14.48
2023-03-06T14:18:18.395Z,14.01
2023-03-06T14:21:12.960Z,14.01
2023-03-06T14:23:44.483Z,13.96
2023-03-06T14:26:24.873Z,13.66
2023-03-06T14:28:59.006Z,13.11
2023-03-06T14:31:34.088Z,12.97
2023-03-06T14:34:19.611Z,12.80
2023-03-06T14:36:51.174Z,12.79
2023-03-06T14:39:42.766Z,12.75
2023-03-06T14:42:24.565Z,12.83
2023-03-06T14:45:05.718Z,12.84
2023-03-06T14:47:36.285Z,12.75
2023-03-06T14:50:29.715Z,12.56
2023-03-06T14:53:14.497Z,12.21
2023-03-06T14:56:07.285Z,12.19
2023-03-06T15:22:50.279Z,11.46
2023-03-06T15:25:31.762Z,11.46
2023-03-06T15:28:19.862Z,11.46
2023-03-06T15:31:10.668Z,11.39
2023-03-06T15:33:39.088Z,11.33
2023-03-06T15:36:29.087Z,11.29
2023-03-06T15:39:01.923Z,11.22
2023-03-06T15:41:35.260Z,11.12
2023-03-06T15:44:14.594Z,11.01
2023-03-06T15:46:42.778Z,10.90
2023-03-06T15:49:16.702Z,10.83
2023-03-06T15:51:54.686Z,10.74
2023-03-06T15:54:24.896Z,10.64
2023-03-06T15:56:53.794Z,10.57
2023-03-06T15:59:32.990Z,10.46
2023-03-06T16:02:17.181Z,10.35
2023-03-06T16:04:47.987Z,10.27
2023-03-06T16:07:17.027Z,10.18
2023-03-06T16:09:45.290Z,10.08
2023-03-06T16:12:17.787Z,9.98
2023-03-06T16:14:49.226Z,9.86
2023-03-06T16:17:17.723Z,9.78
2023-03-06T16:19:45.971Z,9.69
2023-03-06T16:22:16.830Z,9.59
2023-03-06T16:24:45.691Z,9.49
2023-03-06T16:27:22.936Z,9.42
2023-03-06T16:29:52.996Z,9.33
2023-03-06T16:32:21.291Z,9.26
2023-03-06T16:34:49.777Z,9.18
2023-03-06T16:37:18.339Z,9.09
2023-03-06T16:39:46.544Z,9.00
2023-03-06T16:42:17.060Z,8.91
2023-03-06T16:44:45.932Z,8.82
2023-03-06T16:47:14.016Z,8.73
2023-03-06T16:49:42.233Z,8.66
2023-03-06T16:52:11.019Z,8.58
2023-03-06T16:54:40.305Z,8.48
2023-03-06T16:57:15.573Z,8.38
2023-03-06T16:59:44.030Z,8.26
2023-03-06T17:02:14.394Z,8.16
2023-03-06T17:04:42.609Z,8.06
2023-03-06T17:07:10.826Z,7.98
2023-03-06T17:09:39.235Z,7.90
2023-03-06T17:12:09.615Z,7.81
2023-03-06T17:14:37.969Z,7.74
2023-03-06T17:17:06.357Z,7.67
2023-03-06T17:19:35.104Z,7.61
2023-03-06T17:22:16.279Z,7.55
2023-03-06T17:24:49.274Z,7.47
2023-03-06T17:27:21.942Z,7.40
2023-03-06T17:29:51.193Z,7.33
2023-03-06T17:32:19.387Z,7.28
2023-03-06T17:34:47.650Z,7.22
2023-03-06T17:37:15.826Z,7.17
2023-03-06T17:39:43.995Z,7.12
2023-03-06T17:42:12.266Z,7.08
2023-03-06T17:44:40.664Z,7.03
2023-03-06T17:47:10.939Z,6.97
2023-03-06T17:49:39.248Z,6.89
2023-03-06T17:52:09.074Z,6.83
2023-03-06T17:54:37.091Z,6.77
2023-03-06T17:57:09.886Z,6.71
2023-03-06T17:59:46.292Z,6.65
2023-03-06T18:02:15.449Z,6.58
2023-03-06T18:04:43.800Z,6.51
2023-03-06T18:07:13.581Z,6.46
2023-03-06T18:09:42.524Z,6.41
2023-03-06T18:12:12.124Z,6.36
2023-03-06T18:14:42.889Z,6.31
2023-03-06T18:17:10.939Z,6.26
2023-03-06T18:19:39.124Z,6.19
2023-03-06T18:22:08.531Z,6.12
2023-03-06T18:24:39.291Z,6.04
2023-03-06T18:27:07.369Z,5.99
2023-03-06T18:29:35.440Z,5.94
2023-03-06T18:32:06.728Z,5.89
2023-03-06T18:34:38.501Z,5.84
2023-03-06T18:37:06.785Z,5.80
2023-03-06T18:39:34.841Z,5.74
2023-03-06T18:42:06.711Z,5.70
2023-03-06T18:44:34.913Z,5.67
2023-03-06T18:47:04.850Z,5.63
2023-03-06T18:49:32.952Z,5.60
2023-03-06T18:52:01.202Z,5.59
2023-03-06T18:54:29.815Z,5.59
2023-03-06T18:56:58.534Z,5.59
2023-03-06T18:59:30.111Z,5.61
2023-03-06T19:01:59.077Z,5.64
2023-03-06T19:04:27.728Z,5.66
2023-03-06T19:06:56.602Z,5.66
2023-03-06T19:09:25.712Z,5.67
2023-03-06T19:11:54.967Z,5.67
2023-03-06T19:14:24.624Z,5.64
2023-03-06T19:16:53.027Z,5.62
2023-03-06T19:19:25.701Z,5.61
2023-03-06T19:21:57.566Z,5.59
2023-03-06T19:24:30.832Z,5.50
2023-03-06T19:26:59.299Z,5.36
2023-03-06T19:29:28.079Z,5.25
2023-03-06T19:31:59.062Z,5.17
2023-03-06T19:34:34.965Z,5.11
2023-03-06T19:37:03.987Z,5.05
2023-03-06T19:39:32.237Z,5.01
2023-03-06T19:42:00.449Z,5.00
2023-03-06T19:44:28.814Z,5.00
2023-03-06T19:46:57.251Z,4.99
2023-03-06T19:49:27.947Z,4.97
2023-03-06T19:51:56.204Z,4.94
2023-03-06T19:54:26.312Z,4.93
2023-03-06T19:56:54.411Z,4.90
2023-03-06T19:59:22.459Z,4.87
2023-03-06T20:01:50.621Z,4.86
2023-03-06T20:04:19.067Z,4.86
2023-03-06T20:06:50.114Z,4.87
2023-03-06T20:09:19.013Z,4.87
2023-03-06T20:11:49.053Z,4.85
2023-03-06T20:14:18.580Z,4.84
2023-03-06T20:16:47.023Z,4.81
2023-03-06T20:19:15.544Z,4.79
2023-03-06T20:21:48.024Z,4.75
2023-03-06T20:24:18.310Z,4.71
2023-03-06T20:26:49.209Z,4.66
2023-03-06T20:29:18.028Z,4.62
2023-03-06T20:31:46.142Z,4.58
2023-03-06T20:34:14.385Z,4.53
2023-03-06T20:36:42.392Z,4.51
2023-03-06T20:39:17.181Z,4.48
2023-03-06T20:41:46.265Z,4.43
2023-03-06T20:44:19.437Z,4.42
2023-03-06T20:46:47.617Z,4.42
2023-03-06T20:49:15.881Z,4.42
2023-03-06T20:51:47.019Z,4.42
2023-03-06T20:54:16.489Z,4.42
2023-03-06T20:56:48.700Z,4.42
2023-03-06T20:59:19.762Z,4.40
2023-03-06T21:01:48.563Z,4.39
2023-03-06T21:04:16.889Z,4.37
2023-03-06T21:06:45.849Z,4.32
2023-03-06T21:09:16.852Z,4.27
2023-03-06T21:11:45.515Z,4.20
2023-03-06T21:14:14.658Z,4.14
2023-03-06T21:16:45.200Z,4.08
2023-03-06T21:19:14.614Z,4.05
2023-03-06T21:21:42.834Z,4.03
2023-03-06T21:24:10.884Z,4.03
2023-03-06T21:26:39.246Z,4.01
2023-03-06T21:29:07.895Z,3.99
2023-03-06T21:31:36.224Z,3.99
2023-03-06T21:34:05.864Z,4.01
2023-03-06T21:36:34.100Z,4.01
2023-03-06T21:39:05.618Z,4.01
2023-03-06T21:41:35.177Z,4.01
2023-03-06T21:44:05.591Z,4.01
2023-03-06T21:46:35.096Z,3.99
2023-03-06T21:49:05.833Z,3.94
2023-03-06T21:51:34.739Z,3.90
2023-03-06T21:54:05.038Z,3.87
2023-03-06T21:56:35.633Z,3.84
2023-03-06T21:59:04.711Z,3.82
2023-03-06T22:01:32.861Z,3.80
2023-03-06T22:04:02.372Z,3.78
2023-03-06T22:06:32.524Z,3.79
2023-03-06T22:09:01.090Z,3.82
2023-03-06T22:11:30.989Z,3.87
2023-03-06T22:13:59.638Z,3.92
2023-03-06T22:16:28.323Z,3.99
2023-03-06T22:18:59.631Z,4.04
2023-03-06T22:21:27.700Z,4.10
2023-03-06T22:23:58.047Z,4.15
2023-03-06T22:26:28.413Z,4.19
2023-03-06T22:28:56.722Z,4.20
2023-03-06T22:31:28.943Z,4.20
2023-03-06T22:34:01.131Z,4.19
2023-03-06T22:36:31.384Z,4.17
2023-03-06T22:39:04.081Z,4.12
2023-03-06T22:41:33.080Z,4.05
2023-03-06T22:44:03.554Z,3.98
2023-03-06T22:46:32.422Z,3.91
2023-03-06T22:49:01.540Z,3.87
2023-03-06T22:51:31.850Z,3.87
2023-03-06T22:54:05.231Z,3.90
2023-03-06T22:56:33.633Z,3.95
2023-03-06T22:59:02.111Z,4.02
2023-03-06T23:01:33.669Z,4.09
2023-03-06T23:04:07.765Z,4.14
2023-03-06T23:06:40.678Z,4.19
2023-03-06T23:09:20.014Z,4.24
2023-03-06T23:12:08.464Z,4.28
2023-03-06T23:14:55.035Z,4.27
2023-03-06T23:17:41.205Z,4.24
2023-03-06T23:20:29.429Z,4.22
2023-03-06T23:23:23.329Z,4.21
2023-03-06T23:25:52.406Z,4.16
2023-03-06T23:28:20.622Z,4.10
2023-03-06T23:30:48.623Z,4.05
2023-03-06T23:33:17.120Z,4.00
2023-03-06T23:35:46.108Z,3.96
2023-03-06T23:38:14.190Z,3.90
2023-03-06T23:40:43.508Z,3.87
2023-03-06T23:43:11.549Z,3.84
2023-03-06T23:45:41.048Z,3.81
2023-03-06T23:48:10.305Z,3.79
2023-03-06T23:50:40.554Z,3.79
2023-03-06T23:53:08.561Z,3.81
2023-03-06T23:55:40.833Z,3.79
2023-03-06T23:58:11.254Z,3.78
